createdAt,value
2018-11-26T00:07:47.636Z,5.30
2018-11-26T00:17:52.321Z,4.10
2018-11-26T00:27:58.621Z,6.73
2018-11-26T00:38:03.544Z,5.13
2018-11-26T00:48:08.957Z,2.90
2018-11-26T00:58:13.883Z,3.27
2018-11-26T01:08:18.611Z,4.27
2018-11-26T01:18:23.820Z,2.60
2018-11-26T01:28:28.600Z,4.60
2018-11-26T01:38:33.683Z,4.93
2018-11-26T01:48:38.519Z,3.10
2018-11-26T01:58:43.217Z,2.30
2018-11-26T02:08:47.908Z,2.53
2018-11-26T02:18:52.658Z,3.87
2018-11-26T02:28:57.435Z,2.37
2018-11-26T02:39:02.055Z,2.60
2018-11-26T02:49:07.001Z,2.50
2018-11-26T02:59:11.582Z,2.30
2018-11-26T03:09:16.285Z,2.50
2018-11-26T03:19:20.911Z,2.20
2018-11-26T03:29:26.956Z,2.17
2018-11-26T03:39:31.774Z,2.30
2018-11-26T03:49:37.084Z,2.43
2018-11-26T03:59:41.688Z,2.20
2018-11-26T04:09:46.424Z,2.10
2018-11-26T04:19:51.060Z,2.37
2018-11-26T04:29:55.716Z,2.97
2018-11-26T04:40:00.389Z,2.10
2018-11-26T04:50:06.240Z,2.60
2018-11-26T05:00:13.993Z,2.10
2018-11-26T05:10:18.688Z,2.00
2018-11-26T05:20:23.305Z,1.87
2018-11-26T05:30:27.854Z,1.80
2018-11-26T05:40:32.488Z,2.10
2018-11-26T05:50:37.192Z,2.00
2018-11-26T06:00:41.772Z,1.70
2018-11-26T06:10:46.328Z,1.80
2018-11-26T06:20:51.104Z,1.57
2018-11-26T06:30:56.729Z,1.93
2018-11-26T06:41:02.509Z,1.70
2018-11-26T06:51:07.650Z,1.70
2018-11-26T07:01:12.399Z,1.60
2018-11-26T07:11:16.969Z,1.60
2018-11-26T07:21:21.577Z,1.73
2018-11-26T07:31:27.062Z,1.60
2018-11-26T07:41:31.771Z,1.80
2018-11-26T07:51:36.638Z,1.57
2018-11-26T08:01:41.285Z,1.53
2018-11-26T08:11:45.899Z,1.60
2018-11-26T08:21:50.608Z,1.33
2018-11-26T08:31:55.298Z,1.60
2018-11-26T08:42:00.107Z,1.60
2018-11-26T08:52:04.723Z,1.40
2018-11-26T09:02:10.742Z,1.37
2018-11-26T09:12:15.363Z,1.40
2018-11-26T09:22:19.983Z,1.20
2018-11-26T09:32:24.671Z,1.50
2018-11-26T09:42:29.289Z,1.50
2018-11-26T09:52:34.026Z,1.40
2018-11-26T10:02:39.026Z,1.77
2018-11-26T10:12:44.952Z,1.30
2018-11-26T10:22:51.060Z,1.97
2018-11-26T10:32:55.687Z,1.43
2018-11-26T10:43:01.306Z,1.50
2018-11-26T10:53:06.097Z,2.07
2018-11-26T11:03:10.746Z,4.33
2018-11-26T11:13:15.536Z,3.70
2018-11-26T11:23:20.293Z,8.90
2018-11-26T11:43:29.526Z,7.60
2018-11-26T11:53:34.245Z,12.07
2018-11-26T12:03:38.936Z,7.00
2018-11-26T12:13:43.582Z,5.67
2018-11-26T12:23:48.601Z,11.70
2018-11-26T12:33:53.308Z,6.13
2018-11-26T12:43:57.922Z,9.83
2018-11-26T12:54:02.521Z,6.00
2018-11-26T13:04:07.313Z,6.63
2018-11-26T13:14:11.931Z,7.53
2018-11-26T13:24:16.531Z,10.13
2018-11-26T13:34:21.600Z,6.67
2018-11-26T13:44:26.206Z,7.33
2018-11-26T13:54:31.277Z,10.10
2018-11-26T14:04:36.024Z,7.00
2018-11-26T14:14:41.082Z,7.57
2018-11-26T14:24:45.966Z,8.03
2018-11-26T14:34:50.601Z,8.03
2018-11-26T14:44:55.606Z,5.93
2018-11-26T14:55:00.338Z,10.53
2018-11-26T15:05:05.909Z,5.37
2018-11-26T15:15:18.315Z,9.17
2018-11-26T15:25:31.870Z,12.97
2018-11-26T15:35:36.747Z,7.73
2018-11-26T15:45:41.583Z,9.00
2018-11-26T15:55:46.434Z,5.83
2018-11-26T16:05:51.101Z,7.77
2018-11-26T16:15:55.751Z,7.57
2018-11-26T16:26:00.620Z,6.73
2018-11-26T16:36:05.909Z,8.30
2018-11-26T16:46:10.691Z,6.70
2018-11-26T16:56:15.498Z,6.80
2018-11-26T17:06:21.021Z,6.10
2018-11-26T17:16:26.081Z,8.07
2018-11-26T17:26:30.846Z,13.63
2018-11-26T17:36:36.881Z,8.97
2018-11-26T17:46:41.591Z,12.03
2018-11-26T17:56:46.247Z,9.83
2018-11-26T18:06:51.296Z,10.73
2018-11-26T18:16:57.666Z,8.03
2018-11-26T18:27:02.414Z,8.93
2018-11-26T18:37:07.467Z,7.73
2018-11-26T18:47:12.921Z,8.47
2018-11-26T18:57:19.154Z,8.73
2018-11-26T19:07:24.381Z,5.93
2018-11-26T19:17:29.017Z,9.63
2018-11-26T19:27:34.589Z,8.73
2018-11-26T19:37:40.194Z,7.70
2018-11-26T19:47:45.276Z,7.60
2018-11-26T19:57:50.449Z,9.87
2018-11-26T20:07:55.725Z,7.20
2018-11-26T20:18:00.862Z,12.67
2018-11-26T20:28:06.243Z,18.53
2018-11-26T20:38:13.172Z,17.90
2018-11-26T20:48:19.078Z,18.50
2018-11-26T20:58:24.018Z,19.37
2018-11-26T21:08:29.892Z,25.30
2018-11-26T21:18:35.224Z,15.70
2018-11-26T21:28:40.385Z,15.70
2018-11-26T21:38:45.790Z,13.83
2018-11-26T21:48:50.895Z,16.23
2018-11-26T21:58:56.016Z,14.13
2018-11-26T22:09:01.172Z,8.73
2018-11-26T22:19:06.933Z,25.17
2018-11-26T22:29:11.989Z,16.90
2018-11-26T22:39:17.074Z,18.83
2018-11-26T22:49:21.715Z,20.30
2018-11-26T22:59:26.374Z,17.73
2018-11-26T23:09:31.475Z,15.67
2018-11-26T23:19:36.472Z,14.60
2018-11-26T23:29:41.149Z,13.80
2018-11-26T23:39:45.970Z,13.13
2018-11-26T23:49:51.663Z,14.63
2018-11-26T23:59:56.534Z,3.73
